Time,TemperatureF,DewpointF,PressureIn,WindDirection,WindDirectionDegrees,WindSpeedMPH,WindSpeedGustMPH,Humidity,HourlyPrecipIn,Conditions,Clouds,dailyrainin,SolarRadiationWatts/m^2,SoftwareType,DateUTC
2013-09-07 05:52:00,66.0,44.0,-100.00,ENE,67,3.0,4.0,45,-99.99,,,0.00,0.000000,,2013-09-07 12:52:00,
2013-09-07 06:02:00,66.0,44.0,-100.00,ENE,67,3.0,4.0,45,-99.99,,,0.00,0.000000,,2013-09-07 13:02:00,
2013-09-07 09:12:00,71.0,47.0,-100.00,ENE,67,1.0,2.0,43,-99.99,,,0.00,140.000000,,2013-09-07 16:12:00,
2013-09-07 09:24:00,71.0,47.0,-100.00,ENE,67,1.0,2.0,43,-99.99,,,0.00,140.000000,,2013-09-07 16:24:00,
2013-09-07 09:53:00,73.0,51.0,-100.00,ENE,69,2.0,4.0,46,0.00,,,0.00,343.000000,,2013-09-07 16:53:00,
2013-09-07 10:04:00,73.0,51.0,-100.00,ENE,69,2.0,4.0,46,0.00,,,0.00,343.000000,,2013-09-07 17:04:00,
2013-09-07 10:12:00,73.0,51.0,-100.00,ENE,69,2.0,4.0,46,0.00,,,0.00,343.000000,,2013-09-07 17:12:00,
2013-09-07 10:24:00,73.0,51.0,-100.00,ENE,69,2.0,4.0,46,0.00,,,0.00,343.000000,,2013-09-07 17:24:00,
2013-09-07 10:52:00,78.0,50.0,-100.00,ENE,69,4.0,6.0,38,0.00,,,0.00,503.000000,,2013-09-07 17:52:00,
2013-09-07 11:01:00,78.0,50.0,-100.00,ENE,69,4.0,6.0,38,0.00,,,0.00,503.000000,,2013-09-07 18:01:00,
2013-09-07 11:13:00,78.0,50.0,-100.00,ENE,69,4.0,6.0,38,0.00,,,0.00,503.000000,,2013-09-07 18:13:00,
2013-09-07 11:21:00,78.0,50.0,-100.00,ENE,69,4.0,6.0,38,0.00,,,0.00,503.000000,,2013-09-07 18:21:00,
2013-09-07 11:52:00,84.0,46.0,-100.00,South,171,5.0,7.0,27,0.00,,,0.00,632.000000,,2013-09-07 18:52:00,
2013-09-07 12:02:00,84.0,46.0,-100.00,South,171,5.0,7.0,27,0.00,,,0.00,632.000000,,2013-09-07 19:02:00,
2013-09-07 12:11:00,84.0,46.0,-100.00,South,171,5.0,7.0,27,0.00,,,0.00,632.000000,,2013-09-07 19:11:00,
2013-09-07 12:21:00,84.0,46.0,-100.00,South,171,5.0,7.0,27,0.00,,,0.00,632.000000,,2013-09-07 19:21:00,
2013-09-07 12:52:00,88.0,46.0,-100.00,SSW,202,7.0,11.0,23,0.00,,,0.00,724.000000,,2013-09-07 19:52:00,
2013-09-07 13:02:00,88.0,46.0,-100.00,SSW,202,7.0,11.0,23,0.00,,,0.00,724.000000,,2013-09-07 20:02:00,
2013-09-07 13:11:00,88.0,46.0,-100.00,SSW,202,7.0,11.0,23,0.00,,,0.00,724.000000,,2013-09-07 20:11:00,
2013-09-07 13:22:00,88.0,46.0,-100.00,SSW,202,7.0,11.0,23,0.00,,,0.00,724.000000,,2013-09-07 20:22:00,
2013-09-07 13:53:00,93.0,38.0,-100.00,South,191,8.0,14.0,15,0.00,,,0.00,760.000000,,2013-09-07 20:53:00,
2013-09-07 14:02:00,93.0,38.0,-100.00,South,191,8.0,14.0,15,0.00,,,0.00,760.000000,,2013-09-07 21:02:00,
2013-09-07 14:12:00,93.0,38.0,-100.00,South,191,8.0,14.0,15,0.00,,,0.00,760.000000,,2013-09-07 21:12:00,
2013-09-07 14:22:00,93.0,38.0,-100.00,South,191,8.0,14.0,15,0.00,,,0.00,760.000000,,2013-09-07 21:22:00,
2013-09-07 14:54:00,93.0,40.0,-100.00,ESE,112,13.0,17.0,16,0.00,,,0.00,741.000000,,2013-09-07 21:54:00,
2013-09-07 15:04:00,93.0,40.0,-100.00,ESE,112,13.0,17.0,16,0.00,,,0.00,741.000000,,2013-09-07 22:04:00,
2013-09-07 15:13:00,93.0,40.0,-100.00,ESE,112,13.0,17.0,16,0.00,,,0.00,741.000000,,2013-09-07 22:13:00,
2013-09-07 15:53:00,92.0,45.0,-100.00,ESE,110,15.0,22.0,20,0.00,,,0.00,669.000000,,2013-09-07 22:53:00,
2013-09-07 16:03:00,92.0,45.0,-100.00,ESE,110,15.0,22.0,20,0.00,,,0.00,669.000000,,2013-09-07 23:03:00,
2013-09-07 16:12:00,92.0,45.0,-100.00,ESE,110,15.0,22.0,20,0.00,,,0.00,669.000000,,2013-09-07 23:12:00,
2013-09-07 16:23:00,92.0,45.0,-100.00,ESE,110,15.0,22.0,20,0.00,,,0.00,669.000000,,2013-09-07 23:23:00,
2013-09-07 16:53:00,90.0,41.0,-100.00,East,101,14.0,20.0,18,0.00,,,0.00,554.000000,,2013-09-07 23:53:00,
2013-09-07 17:02:00,90.0,41.0,-100.00,East,101,14.0,20.0,18,0.00,,,0.00,554.000000,,2013-09-08 00:02:00,
2013-09-07 17:11:00,90.0,41.0,-100.00,East,101,14.0,20.0,18,0.00,,,0.00,554.000000,,2013-09-08 00:11:00,
2013-09-07 17:22:00,90.0,41.0,-100.00,East,101,14.0,20.0,18,0.00,,,0.00,554.000000,,2013-09-08 00:22:00,
2013-09-07 17:52:00,89.0,44.0,-100.00,East,94,12.0,16.0,21,0.00,,,0.00,404.000000,,2013-09-08 00:52:00,
2013-09-07 18:01:00,89.0,44.0,-100.00,East,94,12.0,16.0,21,0.00,,,0.00,404.000000,,2013-09-08 01:01:00,
2013-09-07 18:11:00,89.0,44.0,-100.00,East,94,12.0,16.0,21,0.00,,,0.00,404.000000,,2013-09-08 01:11:00,
2013-09-07 18:22:00,89.0,44.0,-100.00,East,94,12.0,16.0,21,0.00,,,0.00,404.000000,,2013-09-08 01:22:00,
2013-09-07 18:52:00,86.0,46.0,-100.00,ENE,62,10.0,15.0,25,0.00,,,0.00,233.000000,,2013-09-08 01:52:00,
2013-09-07 19:02:00,86.0,46.0,-100.00,ENE,62,10.0,15.0,25,0.00,,,0.00,233.000000,,2013-09-08 02:02:00,
2013-09-07 19:11:00,86.0,46.0,-100.00,ENE,62,10.0,15.0,25,0.00,,,0.00,233.000000,,2013-09-08 02:11:00,
2013-09-07 19:22:00,86.0,46.0,-100.00,ENE,62,10.0,15.0,25,0.00,,,0.00,233.000000,,2013-09-08 02:22:00,
2013-09-07 19:52:00,79.0,46.0,-100.00,NE,55,6.0,11.0,31,0.00,,,0.00,70.000000,,2013-09-08 02:52:00,
2013-09-07 20:02:00,79.0,46.0,-100.00,NE,55,6.0,11.0,31,0.00,,,0.00,70.000000,,2013-09-08 03:02:00,
2013-09-07 20:12:00,79.0,46.0,-100.00,NE,55,6.0,11.0,31,0.00,,,0.00,70.000000,,2013-09-08 03:12:00,
2013-09-07 20:22:00,79.0,46.0,-100.00,NE,55,6.0,11.0,31,0.00,,,0.00,70.000000,,2013-09-08 03:22:00,
2013-09-07 20:54:00,74.0,47.0,-100.00,NE,49,3.0,7.0,39,0.00,,,-99.99,1.000000,,2013-09-08 03:54:00,
2013-09-07 21:02:00,-999.0,-99.9,-100.00,NE,49,3.0,7.0,-999,-99.99,,,-99.99,1.000000,,2013-09-08 04:02:00,
2013-09-07 21:14:00,74.0,47.0,-100.00,NE,49,3.0,7.0,39,0.00,,,-99.99,1.000000,,2013-09-08 04:14:00,
2013-09-07 21:24:00,74.0,47.0,-100.00,NE,49,3.0,7.0,39,0.00,,,-99.99,1.000000,,2013-09-08 04:24:00,
2013-09-07 21:54:00,71.0,49.0,-100.00,ENE,64,1.0,5.0,45,0.00,,,0.00,0.000000,,2013-09-08 04:54:00,
2013-09-07 22:03:00,71.0,49.0,-100.00,ENE,64,1.0,5.0,45,0.00,,,0.00,0.000000,,2013-09-08 05:03:00,
2013-09-07 22:12:00,71.0,49.0,-100.00,ENE,64,1.0,5.0,45,0.00,,,0.00,0.000000,,2013-09-08 05:12:00,
2013-09-07 22:23:00,71.0,49.0,-100.00,ENE,64,1.0,5.0,45,0.00,,,0.00,0.000000,,2013-09-08 05:23:00,
2013-09-07 22:52:00,68.0,48.0,-100.00,ENE,71,4.0,5.0,49,0.00,,,0.00,0.000000,,2013-09-08 05:52:00,
2013-09-07 23:03:00,68.0,48.0,-100.00,ENE,71,4.0,5.0,49,0.00,,,0.00,0.000000,,2013-09-08 06:03:00,
2013-09-07 23:13:00,68.0,48.0,-100.00,ENE,71,4.0,5.0,49,0.00,,,0.00,0.000000,,2013-09-08 06:13:00,
2013-09-07 23:21:00,68.0,48.0,-100.00,ENE,71,4.0,5.0,49,0.00,,,0.00,0.000000,,2013-09-08 06:21:00,
2013-09-07 23:53:00,64.0,51.0,-100.00,ENE,66,3.0,4.0,62,0.00,,,0.00,0.000000,,2013-09-08 06:53:00,